Detall de PIREP

Printer-friendly versionPDF version

[2014/05/26 10:17:00]
Flight IATA:CT3102
Pilot Number:042
Company ICAO:CAT
Aircraft Type:F100/A
PAX:45
Aircraft Registration:PFJ
Departing Airport: LIEA
Destination Airport: LEPA
Alternate Airport:LEBL
Online: VATSIM
Route:SUPUX UZ924 RIPAL UM603 MORSS
Flight Level:F250
No Slew and time accel
No pause
Crash detect
Detect pilot in Cockpit between each 30 and 45 minutes
10:17 Zero fuel Weight: 81825 Lbs, Fuel Weight: 22685 Lbs
10:17 VATSIM:LIEA 260950Z 20008KT 170V250 9999 FEW028 21/13 Q1018
10:17 VATSIM:LEPA 261000Z 22012KT 9999 FEW016 21/14 Q1018 NOSIG
10:20 Parking Brakes off
10:23 Take-off
10:23 Take off Weight: 104106 Lbs
10:23 Wind: 193º @ 008 Knots Heading: 203º
10:23 POS N40º 37´ 40´´ E008º 17´ 18´´
10:23 Gear Up: 175 Knots
10:23 Flaps:1 at 176 Knots
10:24 Flaps:0 at 199 Knots
10:35 TOC
10:35 Fuel Weight: 20602 Lb
10:38 Wind:204º@026 Knots Heading: 256º Ground Speed: 428 Knots Altitude 25111 ft
10:48 TOD
10:48 Fuel Weight: 19260 Lb
10:53 Wind:219º@025 Knots Heading: 253º Ground Speed: 400 Knots Altitude 19635 ft
11:08 Wind:210º@018 Knots Heading: 253º Ground Speed: 219 Knots Altitude 3293 ft
11:09 Gear Down: 207 Knots
11:09 Gear Up: 206 Knots
11:09 Flaps:1 at 206 Knots
11:10 Flaps:2 at 185 Knots
11:10 Gear Down: 184 Knots
11:10 Flaps:3 at 172 Knots
11:13 TouchDown:Rate -269 ft/min Speed: 148 Knots
11:13 VATSIM:LEPA 261030Z 21011KT 190V250 9999 FEW016 22/15 Q1018 NOSIG
11:13 Land
11:13 Wind:211º@011 Knots
11:13 Heading: 234º
11:13 Flight Duration: 00:50
11:13 Landing Weight: 99882 Lbs
11:13 POS N39º 32´ 46´´ E002º 44´ 31´´
11:19 Parking brakes on
11:19 Block to Block Duration: 01:00
11:19 Final Fuel: 17663 Lbls
11:19 Spent Fuel: 5022 Lbls
11:19 Flight Length: 267 NM
11:19 TOD Land Length: 117 NM

Exportar CSV

Powered by Drupal - Modified by Danger4k